Terminal Aerodrome Forecast
Issued by NWS

Home | Current Version | Previous Version | Text Only | Print | Product List | Glossary On
Versions: 1 2 3 4 5 6 7 8 9 10 11 12 13
000
FTUS43 KOAX 242320
TAFSNY
TAF
KSNY 242320Z 2500/2524 16013G23KT P6SM SCT090
     FM250400 19010KT P6SM SCT090
     FM250800 29010KT P6SM SCT090
     FM251600 01010G20KT P6SM BKN070
     FM252000 02012G22KT P6SM VCSH BKN050=

USA.gov is the U.S. government's official web portal to all federal, state and local government web resources and services.